createdAt,value
2019-04-05T00:00:51.835Z,10.97
2019-04-05T00:03:23.521Z,11.77
2019-04-05T00:05:55.846Z,11.60
2019-04-05T00:08:27.464Z,11.37
2019-04-05T00:10:58.999Z,11.57
2019-04-05T00:13:30.424Z,11.80
2019-04-05T00:16:02.194Z,11.90
2019-04-05T00:18:33.757Z,12.67
2019-04-05T00:21:05.193Z,12.30
2019-04-05T00:23:36.629Z,12.27
2019-04-05T00:26:08.049Z,11.23
2019-04-05T00:28:39.593Z,11.37
2019-04-05T00:31:11.101Z,12.27
2019-04-05T00:33:42.558Z,11.50
2019-04-05T00:36:14.024Z,11.43
2019-04-05T00:38:45.606Z,11.47
2019-04-05T00:41:17.052Z,12.27
2019-04-05T00:43:48.568Z,10.43
2019-04-05T00:46:20.079Z,12.30
2019-04-05T00:48:51.559Z,10.93
2019-04-05T00:51:23.106Z,12.40
2019-04-05T00:53:54.514Z,11.53
2019-04-05T00:56:25.955Z,11.27
2019-04-05T00:58:57.524Z,11.30
2019-04-05T01:01:29.002Z,11.80
2019-04-05T01:04:00.441Z,11.47
2019-04-05T01:06:33.198Z,11.67
2019-04-05T01:09:06.895Z,12.30
2019-04-05T01:11:38.360Z,11.70
2019-04-05T01:14:09.823Z,11.37
2019-04-05T01:16:41.225Z,12.20
2019-04-05T01:19:14.267Z,12.07
2019-04-05T01:21:48.505Z,11.00
2019-04-05T01:24:21.393Z,11.53
2019-04-05T01:26:54.437Z,12.37
2019-04-05T01:29:26.001Z,11.80
2019-04-05T01:31:57.545Z,11.83
2019-04-05T01:34:29.073Z,11.87
2019-04-05T01:37:01.070Z,11.27
2019-04-05T01:39:32.689Z,12.53
2019-04-05T01:42:04.203Z,12.70
2019-04-05T01:44:37.662Z,12.50
2019-04-05T01:47:09.085Z,11.93
2019-04-05T01:49:40.561Z,12.67
2019-04-05T01:52:13.301Z,12.70
2019-04-05T01:54:44.916Z,11.77
2019-04-05T01:57:16.512Z,13.30
2019-04-05T01:59:47.993Z,12.57
2019-04-05T02:02:19.412Z,12.63
2019-04-05T02:04:52.774Z,12.40
2019-04-05T02:07:25.325Z,13.27
2019-04-05T02:09:57.172Z,11.70
2019-04-05T02:12:28.653Z,12.13
2019-04-05T02:15:00.161Z,13.33
2019-04-05T02:17:31.659Z,13.73
2019-04-05T02:20:03.097Z,13.13
2019-04-05T02:22:34.579Z,13.23
2019-04-05T02:25:06.482Z,12.80
2019-04-05T02:27:37.976Z,13.43
2019-04-05T02:30:09.567Z,12.50
2019-04-05T02:32:41.085Z,12.90
2019-04-05T02:35:13.019Z,12.73
2019-04-05T02:37:44.583Z,13.17
2019-04-05T02:40:16.970Z,13.40
2019-04-05T02:42:51.869Z,12.80
2019-04-05T02:45:24.415Z,12.80
2019-04-05T02:47:59.865Z,12.77
2019-04-05T02:50:34.032Z,13.20
2019-04-05T02:53:07.757Z,13.50
2019-04-05T02:55:41.300Z,12.60
2019-04-05T02:58:13.964Z,12.93
2019-04-05T03:00:46.157Z,13.53
2019-04-05T03:03:17.806Z,13.50
2019-04-05T03:05:49.283Z,13.23
2019-04-05T03:08:21.101Z,12.93
2019-04-05T03:11:04.285Z,13.13
2019-04-05T03:13:41.016Z,12.87
2019-04-05T03:16:17.460Z,13.77
2019-04-05T03:18:56.182Z,14.10
2019-04-05T03:21:29.396Z,13.93
2019-04-05T03:24:03.735Z,13.53
2019-04-05T03:26:38.764Z,13.13
2019-04-05T03:29:10.880Z,14.10
2019-04-05T03:31:42.717Z,14.37
2019-04-05T03:34:14.218Z,14.77
2019-04-05T03:36:46.185Z,14.67
2019-04-05T03:39:17.722Z,14.67
2019-04-05T03:41:49.223Z,15.30
2019-04-05T03:44:22.965Z,14.87
2019-04-05T03:46:57.753Z,15.53
2019-04-05T03:49:29.496Z,14.77
2019-04-05T03:52:01.077Z,15.23
2019-04-05T03:54:32.665Z,13.30
2019-04-05T03:57:04.648Z,15.10
2019-04-05T03:59:36.371Z,14.57
2019-04-05T04:02:07.865Z,14.40
2019-04-05T04:04:39.439Z,14.90
2019-04-05T04:07:10.938Z,15.07
2019-04-05T04:09:42.702Z,14.97
2019-04-05T04:12:14.455Z,15.20
2019-04-05T04:14:47.185Z,15.07
2019-04-05T04:17:18.777Z,15.80
2019-04-05T04:19:50.323Z,15.43
2019-04-05T04:22:29.179Z,15.20
2019-04-05T04:25:03.220Z,15.07
2019-04-05T04:27:35.063Z,13.87
2019-04-05T04:30:06.953Z,15.00
2019-04-05T04:32:38.437Z,15.17
2019-04-05T04:35:09.858Z,16.43
2019-04-05T04:37:41.292Z,15.80
2019-04-05T04:40:13.070Z,15.83
2019-04-05T04:42:44.769Z,16.97
2019-04-05T04:45:18.726Z,15.57
2019-04-05T04:47:50.602Z,17.20
2019-04-05T04:50:23.023Z,16.37
2019-04-05T04:52:55.046Z,16.40
2019-04-05T04:55:29.493Z,15.30
2019-04-05T04:58:01.358Z,17.50
2019-04-05T05:00:32.822Z,17.00
2019-04-05T05:03:04.451Z,16.87
2019-04-05T05:05:36.582Z,16.47
2019-04-05T05:08:08.838Z,16.20
2019-04-05T05:10:40.399Z,17.23
2019-04-05T05:13:12.347Z,17.00
2019-04-05T05:15:45.330Z,16.57
2019-04-05T05:18:17.652Z,16.90
2019-04-05T05:20:49.389Z,16.60
2019-04-05T05:23:20.825Z,17.13
2019-04-05T05:25:52.522Z,16.73
2019-04-05T05:28:24.166Z,17.10
2019-04-05T05:30:55.688Z,16.73
2019-04-05T05:33:27.196Z,17.80
2019-04-05T05:35:58.897Z,16.47
2019-04-05T05:38:30.325Z,16.50
2019-04-05T05:41:01.881Z,14.87
2019-04-05T05:43:33.497Z,17.50
2019-04-05T05:46:05.000Z,17.43
2019-04-05T05:48:40.289Z,17.87
2019-04-05T05:51:12.374Z,16.13
2019-04-05T05:53:44.760Z,17.20
2019-04-05T05:56:17.793Z,17.10
2019-04-05T05:58:55.379Z,18.63
2019-04-05T06:01:29.210Z,16.90
2019-04-05T06:04:00.718Z,18.07
2019-04-05T06:06:32.127Z,16.77
2019-04-05T06:09:05.166Z,16.67
2019-04-05T06:11:36.602Z,16.77
2019-04-05T06:14:08.165Z,17.20
2019-04-05T06:16:46.221Z,16.67
2019-04-05T06:19:12.856Z,18.03
2019-04-05T06:21:44.379Z,15.90
2019-04-05T06:24:15.940Z,15.63
2019-04-05T06:26:47.448Z,16.33
2019-04-05T06:29:18.962Z,16.83
2019-04-05T06:31:50.444Z,16.50
2019-04-05T06:34:22.174Z,17.27
2019-04-05T06:36:53.563Z,16.03
2019-04-05T06:39:26.000Z,18.27
2019-04-05T06:41:57.455Z,15.50
2019-04-05T06:44:28.996Z,15.20
2019-04-05T06:47:00.473Z,15.63
2019-04-05T06:49:32.492Z,16.40
2019-04-05T06:52:03.962Z,16.20
2019-04-05T06:54:36.517Z,15.63
2019-04-05T06:57:08.785Z,17.10
2019-04-05T06:59:40.189Z,17.60
2019-04-05T07:02:11.643Z,15.97
2019-04-05T07:04:43.181Z,14.87
2019-04-05T07:07:17.664Z,16.47
2019-04-05T07:09:47.829Z,15.40
2019-04-05T07:12:20.777Z,14.93
2019-04-05T07:14:56.116Z,15.43
2019-04-05T07:17:26.690Z,14.87
2019-04-05T07:19:58.486Z,14.70
2019-04-05T07:22:38.582Z,15.50
2019-04-05T07:25:03.291Z,14.33
2019-04-05T07:27:49.018Z,14.73
2019-04-05T07:30:21.163Z,14.50
2019-04-05T07:32:52.588Z,16.03
2019-04-05T07:35:33.399Z,17.30
2019-04-05T07:37:57.277Z,16.10
2019-04-05T07:40:28.867Z,15.97
2019-04-05T07:43:00.353Z,16.33
2019-04-05T07:45:31.951Z,17.80
2019-04-05T07:48:03.398Z,16.60
2019-04-05T07:50:34.945Z,17.17
2019-04-05T07:53:06.370Z,16.27
2019-04-05T07:55:37.882Z,17.37
2019-04-05T07:58:21.425Z,17.27
2019-04-05T08:00:54.893Z,17.33
2019-04-05T08:03:26.658Z,18.50
2019-04-05T08:05:58.105Z,17.33
2019-04-05T08:08:39.704Z,18.40
2019-04-05T08:11:23.123Z,18.13
2019-04-05T08:13:57.500Z,18.37
2019-04-05T08:16:29.031Z,17.83
2019-04-05T08:19:00.635Z,18.07
2019-04-05T08:21:32.064Z,19.30
2019-04-05T08:24:03.488Z,19.27
2019-04-05T08:26:35.081Z,19.47
2019-04-05T08:29:07.093Z,19.00
2019-04-05T08:31:38.548Z,19.50
2019-04-05T08:34:09.981Z,21.30
2019-04-05T08:36:41.390Z,20.13
2019-04-05T08:39:12.774Z,20.27
2019-04-05T08:41:44.338Z,20.30
2019-04-05T08:44:15.693Z,18.80
2019-04-05T08:46:47.205Z,20.60
2019-04-05T08:49:18.636Z,21.43
2019-04-05T08:51:50.089Z,21.80
2019-04-05T08:54:31.815Z,21.30
2019-04-05T08:56:54.654Z,21.37
2019-04-05T08:59:26.046Z,21.37
2019-04-05T09:01:57.434Z,25.60
2019-04-05T09:04:29.020Z,22.97
2019-04-05T09:07:00.496Z,23.17
2019-04-05T09:09:31.802Z,20.47
2019-04-05T09:12:03.409Z,21.03
2019-04-05T09:14:34.766Z,20.03
2019-04-05T09:17:06.196Z,20.17
2019-04-05T09:19:38.568Z,18.40
2019-04-05T09:22:10.056Z,20.83
2019-04-05T09:24:41.452Z,18.60
2019-04-05T09:27:12.925Z,19.43
2019-04-05T09:29:45.350Z,18.83
2019-04-05T09:32:16.907Z,17.77
2019-04-05T09:34:48.395Z,20.47
2019-04-05T09:37:19.970Z,20.37
2019-04-05T09:39:51.322Z,19.60
2019-04-05T09:42:22.716Z,19.77
2019-04-05T09:44:54.157Z,19.97
2019-04-05T09:47:25.628Z,22.07
2019-04-05T09:49:57.037Z,20.43
2019-04-05T09:52:28.543Z,20.07
2019-04-05T09:54:59.947Z,19.37
2019-04-05T09:57:31.445Z,20.67
2019-04-05T10:00:03.984Z,19.53
2019-04-05T10:02:35.853Z,19.20
2019-04-05T10:05:07.248Z,22.23
2019-04-05T10:07:48.718Z,18.87
2019-04-05T10:10:12.149Z,19.80
2019-04-05T10:12:43.657Z,22.03
2019-04-05T10:15:15.305Z,24.07
2019-04-05T10:17:47.230Z,19.47
2019-04-05T10:20:19.577Z,21.60
2019-04-05T10:22:51.029Z,20.23
2019-04-05T10:25:22.511Z,19.47
2019-04-05T10:27:53.989Z,21.33
2019-04-05T10:30:25.418Z,22.10
2019-04-05T10:32:56.892Z,20.43
2019-04-05T10:35:29.357Z,20.33
2019-04-05T10:38:00.852Z,19.70
2019-04-05T10:40:32.329Z,22.27
2019-04-05T10:43:04.021Z,21.97
2019-04-05T10:45:35.696Z,20.47
2019-04-05T10:48:07.153Z,20.23
2019-04-05T10:50:38.719Z,20.90
2019-04-05T10:53:10.175Z,20.17
2019-04-05T10:55:41.714Z,22.47
2019-04-05T10:58:13.262Z,22.03
2019-04-05T11:00:44.773Z,21.30
2019-04-05T11:03:16.421Z,22.00
2019-04-05T11:05:49.460Z,22.10
2019-04-05T11:08:20.995Z,21.27
2019-04-05T11:10:52.581Z,19.90
2019-04-05T11:13:24.292Z,23.43
2019-04-05T11:15:57.587Z,20.00
2019-04-05T11:18:30.631Z,19.40
2019-04-05T11:21:02.481Z,20.37
2019-04-05T11:23:34.287Z,20.83
2019-04-05T11:26:05.871Z,19.13
2019-04-05T11:28:37.621Z,18.87
2019-04-05T11:31:09.176Z,20.77
2019-04-05T11:33:42.021Z,21.07
2019-04-05T11:36:14.351Z,18.97
2019-04-05T11:38:50.048Z,19.33
2019-04-05T11:41:27.016Z,19.50
2019-04-05T11:44:00.709Z,19.73
2019-04-05T11:46:34.346Z,18.67
2019-04-05T11:49:06.845Z,19.00
2019-04-05T11:51:38.309Z,18.80
2019-04-05T11:54:11.767Z,18.67
2019-04-05T11:56:45.293Z,18.10
2019-04-05T11:59:19.720Z,20.30
2019-04-05T12:01:56.000Z,18.87
2019-04-05T12:04:27.517Z,18.03
2019-04-05T12:07:01.084Z,18.03
2019-04-05T12:09:32.709Z,19.50
2019-04-05T12:12:07.310Z,18.60
2019-04-05T12:14:38.931Z,19.43
2019-04-05T12:17:10.361Z,18.10
2019-04-05T12:19:43.024Z,17.53
2019-04-05T12:22:15.905Z,17.50
2019-04-05T12:24:47.737Z,18.50
2019-04-05T12:27:20.825Z,17.10
2019-04-05T12:29:52.571Z,17.83
2019-04-05T12:32:33.440Z,15.50
2019-04-05T12:35:00.420Z,15.27
2019-04-05T12:37:31.929Z,15.93
2019-04-05T12:40:10.244Z,17.37
2019-04-05T12:42:46.681Z,16.47
2019-04-05T12:45:20.671Z,16.23
2019-04-05T12:47:55.010Z,15.47
2019-04-05T12:50:26.630Z,15.60
2019-04-05T12:52:58.031Z,15.30
2019-04-05T12:55:29.846Z,16.60
2019-04-05T12:58:01.338Z,14.33
2019-04-05T13:00:32.872Z,14.40
2019-04-05T13:03:04.885Z,15.00
2019-04-05T13:05:36.509Z,15.13
2019-04-05T13:08:08.161Z,17.67
2019-04-05T13:10:41.096Z,15.67
2019-04-05T13:13:12.506Z,14.40
2019-04-05T13:15:44.138Z,15.20
2019-04-05T13:18:15.528Z,12.70
2019-04-05T13:20:47.161Z,11.67
2019-04-05T13:23:18.769Z,13.43
2019-04-05T13:25:50.887Z,13.10
2019-04-05T13:28:22.470Z,14.03
2019-04-05T13:30:55.573Z,13.10
2019-04-05T13:33:29.053Z,13.40
2019-04-05T13:36:00.611Z,13.93
2019-04-05T13:38:32.107Z,14.00
2019-04-05T13:41:03.680Z,14.20
2019-04-05T13:43:35.549Z,15.27
2019-04-05T13:46:07.176Z,14.07
2019-04-05T13:48:40.113Z,13.57
2019-04-05T13:51:12.891Z,19.60
2019-04-05T13:53:44.401Z,12.90
2019-04-05T13:56:15.788Z,14.40
2019-04-05T13:58:47.221Z,13.87
2019-04-05T14:01:20.636Z,14.27
2019-04-05T14:03:51.870Z,14.97
2019-04-05T14:06:23.311Z,15.13
2019-04-05T14:08:54.724Z,14.53
2019-04-05T14:11:26.342Z,14.47
2019-04-05T14:13:57.865Z,15.00
2019-04-05T14:16:29.505Z,14.40
2019-04-05T14:19:01.055Z,14.80
2019-04-05T14:21:40.172Z,13.87
2019-04-05T14:24:06.625Z,14.37
2019-04-05T14:26:38.116Z,13.73
2019-04-05T14:29:09.649Z,13.60
2019-04-05T14:31:41.097Z,15.27
2019-04-05T14:34:12.513Z,12.70
2019-04-05T14:36:44.077Z,12.93
2019-04-05T14:39:15.536Z,12.27
2019-04-05T14:41:47.238Z,12.60
2019-04-05T14:44:18.670Z,12.07
2019-04-05T14:46:50.332Z,11.53
2019-04-05T14:49:22.049Z,12.47
2019-04-05T14:51:56.479Z,13.37
2019-04-05T14:54:26.870Z,12.53
2019-04-05T14:57:02.387Z,11.90
2019-04-05T14:59:32.909Z,11.97
2019-04-05T15:02:04.536Z,12.70
2019-04-05T15:04:37.167Z,12.83
2019-04-05T15:07:08.764Z,11.90
2019-04-05T15:09:40.494Z,12.13
2019-04-05T15:14:50.049Z,12.90
2019-04-05T15:17:25.088Z,11.37
2019-04-05T15:19:56.622Z,12.10
2019-04-05T15:22:28.357Z,13.40
2019-04-05T15:25:00.998Z,12.47
2019-04-05T15:27:32.521Z,17.23
2019-04-05T15:30:04.075Z,13.60
2019-04-05T15:32:36.192Z,12.63
2019-04-05T15:35:08.000Z,12.77
2019-04-05T15:37:39.448Z,13.50
2019-04-05T15:40:12.209Z,13.80
2019-04-05T15:42:43.654Z,12.27
2019-04-05T15:45:16.608Z,12.30
2019-04-05T15:47:48.106Z,12.53
2019-04-05T15:50:21.981Z,12.50
2019-04-05T15:52:53.567Z,13.07
2019-04-05T15:55:25.413Z,13.60
2019-04-05T15:57:56.887Z,16.07
2019-04-05T16:00:45.137Z,14.30
2019-04-05T16:03:16.745Z,13.43
2019-04-05T16:05:48.372Z,12.50
2019-04-05T16:08:19.990Z,13.27
2019-04-05T16:10:51.525Z,12.40
2019-04-05T16:13:22.965Z,13.70
2019-04-05T16:15:54.529Z,13.23
2019-04-05T16:18:29.245Z,13.60
2019-04-05T16:21:02.869Z,13.53
2019-04-05T16:23:34.507Z,14.53
2019-04-05T16:26:06.141Z,14.03
2019-04-05T16:28:40.784Z,13.07
2019-04-05T16:31:11.095Z,14.57
2019-04-05T16:33:42.837Z,14.00
2019-04-05T16:36:17.013Z,15.13
2019-04-05T16:38:48.524Z,14.53
2019-04-05T16:41:20.025Z,13.83
2019-04-05T16:43:51.406Z,14.17
2019-04-05T16:46:22.799Z,14.90
2019-04-05T16:48:54.132Z,14.50
2019-04-05T16:51:25.629Z,13.93
2019-04-05T16:54:00.795Z,14.87
2019-04-05T16:56:34.167Z,14.97
2019-04-05T16:59:05.759Z,15.23
2019-04-05T17:01:37.324Z,16.90
2019-04-05T17:04:08.818Z,14.97
2019-04-05T17:06:40.266Z,15.43
2019-04-05T17:09:11.862Z,14.87
2019-04-05T17:11:43.432Z,15.27
2019-04-05T17:14:14.702Z,15.53
2019-04-05T17:16:46.327Z,14.80
2019-04-05T17:19:17.758Z,16.17
2019-04-05T17:21:49.528Z,15.30
2019-04-05T17:24:21.098Z,15.87
2019-04-05T17:26:54.395Z,15.33
2019-04-05T17:29:26.278Z,14.00
2019-04-05T17:31:57.834Z,14.93
2019-04-05T17:34:29.385Z,16.23
2019-04-05T17:37:00.946Z,15.77
2019-04-05T17:39:32.360Z,14.20
2019-04-05T17:42:04.106Z,16.67
2019-04-05T17:44:35.510Z,14.77
2019-04-05T17:47:07.302Z,15.40
2019-04-05T17:49:38.737Z,14.70
2019-04-05T17:52:10.401Z,15.13
2019-04-05T17:54:41.965Z,16.30
2019-04-05T17:57:13.429Z,16.27
2019-04-05T17:59:44.907Z,15.30
2019-04-05T18:02:16.318Z,17.33
2019-04-05T18:04:47.924Z,16.77
2019-04-05T18:07:19.651Z,19.40
2019-04-05T18:09:50.946Z,25.33
2019-04-05T18:12:22.351Z,44.20
2019-04-05T18:14:53.806Z,47.70
2019-04-05T18:17:25.400Z,57.37
2019-04-05T18:19:56.928Z,58.07
2019-04-05T18:22:32.773Z,67.33
2019-04-05T18:25:04.875Z,58.23
2019-04-05T18:27:36.380Z,57.43
2019-04-05T18:30:08.181Z,57.53
2019-04-05T18:32:39.724Z,53.53
2019-04-05T18:35:11.363Z,52.60
2019-04-05T18:37:42.810Z,59.27
2019-04-05T18:40:14.307Z,56.63
2019-04-05T18:42:45.693Z,60.90
2019-04-05T18:45:17.386Z,64.57
2019-04-05T18:47:48.868Z,63.73
2019-04-05T18:50:20.315Z,59.53
2019-04-05T18:52:51.721Z,65.37
2019-04-05T18:55:23.368Z,58.07
2019-04-05T18:57:54.854Z,62.50
2019-04-05T19:00:26.212Z,58.70
2019-04-05T19:02:57.693Z,62.73
2019-04-05T19:05:30.066Z,66.53
2019-04-05T19:08:01.485Z,62.07
2019-04-05T19:10:37.132Z,63.80
2019-04-05T19:13:06.197Z,57.63
2019-04-05T19:15:37.873Z,63.40
2019-04-05T19:18:09.264Z,55.17
2019-04-05T19:20:40.667Z,61.00
2019-04-05T19:23:12.502Z,56.37
2019-04-05T19:25:46.497Z,62.93
2019-04-05T19:28:17.121Z,55.87
2019-04-05T19:48:40.743Z,60.63
2019-04-05T19:51:12.127Z,55.37
2019-04-05T19:53:43.541Z,58.63
2019-04-05T19:56:14.929Z,55.10
2019-04-05T19:58:46.389Z,61.20
2019-04-05T20:01:17.802Z,59.23
2019-04-05T20:03:49.349Z,55.87
2019-04-05T20:06:20.989Z,52.17
2019-04-05T20:08:52.524Z,58.20
2019-04-05T20:11:23.841Z,59.13
2019-04-05T20:13:55.232Z,57.43
2019-04-05T20:16:28.559Z,54.40
2019-04-05T20:19:00.487Z,54.43
2019-04-05T20:21:32.111Z,53.43
2019-04-05T20:24:13.755Z,54.87
2019-04-05T20:26:37.904Z,59.20
2019-04-05T20:29:09.657Z,57.30
2019-04-05T20:31:41.077Z,58.80
2019-04-05T20:34:12.582Z,52.37
2019-04-05T20:36:44.061Z,51.77
2019-04-05T20:39:15.428Z,59.63
2019-04-05T20:41:46.824Z,53.33
2019-04-05T20:44:18.204Z,55.67
2019-04-05T20:46:49.663Z,53.70
2019-04-05T20:49:21.065Z,59.80
2019-04-05T20:51:52.552Z,52.27
2019-04-05T20:54:24.904Z,57.50
2019-04-05T20:56:56.545Z,52.23
2019-04-05T20:59:28.101Z,51.53
2019-04-05T21:02:02.093Z,46.57
2019-04-05T21:04:34.177Z,52.50
2019-04-05T21:07:05.648Z,47.33
2019-04-05T21:09:37.196Z,48.30
2019-04-05T21:12:08.747Z,44.77
2019-04-05T21:14:40.379Z,41.17
2019-04-05T21:17:11.817Z,38.67
2019-04-05T21:19:43.252Z,50.63
2019-04-05T21:22:14.882Z,50.63
2019-04-05T21:24:48.172Z,42.23
2019-04-05T21:27:19.793Z,56.40
2019-04-05T21:29:51.369Z,52.23
2019-04-05T21:32:24.540Z,56.50
2019-04-05T21:34:56.024Z,53.97
2019-04-05T21:37:27.556Z,53.47
2019-04-05T21:39:59.007Z,56.33
2019-04-05T21:42:30.440Z,52.87
2019-04-05T21:45:02.326Z,46.07
2019-04-05T21:47:34.815Z,42.90
2019-04-05T21:50:06.563Z,39.73
2019-04-05T21:52:37.961Z,44.17
2019-04-05T21:55:09.579Z,44.50
2019-04-05T21:57:40.966Z,46.60
2019-04-05T22:00:20.473Z,45.23
2019-04-05T22:02:53.643Z,39.93
2019-04-05T22:05:25.188Z,45.73
2019-04-05T22:07:56.728Z,41.87
2019-04-05T22:10:28.392Z,42.00
2019-04-05T22:12:59.867Z,41.30
2019-04-05T22:15:31.773Z,42.13
2019-04-05T22:18:03.301Z,45.50
2019-04-05T22:20:34.881Z,42.97
2019-04-05T22:23:06.332Z,41.67
2019-04-05T22:25:38.077Z,42.23
2019-04-05T22:28:09.610Z,48.50
2019-04-05T22:30:41.079Z,50.00
2019-04-05T22:33:12.579Z,47.70
2019-04-05T22:35:44.534Z,47.17
2019-04-05T22:38:16.099Z,46.77
2019-04-05T22:40:47.503Z,45.37
2019-04-05T22:43:18.821Z,43.53
2019-04-05T22:45:50.521Z,48.43
2019-04-05T22:48:21.990Z,46.47
2019-04-05T22:50:53.454Z,52.87
2019-04-05T22:53:24.986Z,47.20
2019-04-05T22:55:56.448Z,52.23
2019-04-05T22:58:27.792Z,50.97
2019-04-05T23:00:59.269Z,53.37
2019-04-05T23:03:30.694Z,45.93
2019-04-05T23:06:02.235Z,42.37
2019-04-05T23:08:33.634Z,48.53
2019-04-05T23:11:05.281Z,45.90
2019-04-05T23:13:36.838Z,57.27
2019-04-05T23:16:08.634Z,56.23
2019-04-05T23:18:40.030Z,54.70
2019-04-05T23:21:11.462Z,55.57
2019-04-05T23:23:43.081Z,51.77
2019-04-05T23:26:15.255Z,54.10
2019-04-05T23:28:47.744Z,53.73
2019-04-05T23:31:21.467Z,49.80
2019-04-05T23:33:57.328Z,49.10
2019-04-05T23:36:28.796Z,51.37
2019-04-05T23:39:00.371Z,51.60
2019-04-05T23:41:31.822Z,52.37
2019-04-05T23:46:43.403Z,54.03
2019-04-05T23:49:14.884Z,52.60
2019-04-05T23:51:46.369Z,47.43
2019-04-05T23:54:18.031Z,53.30
2019-04-05T23:56:49.554Z,55.13
2019-04-05T23:59:21.045Z,51.03
